createdAt,value
2022-08-20T00:00:26.162Z,4.47
2022-08-20T00:02:55.006Z,4.15
2022-08-20T00:05:24.536Z,4.25
2022-08-20T00:07:52.645Z,3.85
2022-08-20T00:10:20.162Z,4.63
2022-08-20T00:12:48.559Z,4.80
2022-08-20T00:15:21.637Z,4.30
2022-08-20T00:17:52.680Z,4.40
2022-08-20T00:20:21.120Z,4.90
2022-08-20T00:22:48.455Z,4.60
2022-08-20T00:25:16.202Z,4.70
2022-08-20T00:27:43.400Z,5.13
2022-08-20T00:30:11.899Z,5.05
2022-08-20T00:32:52.660Z,5.00
2022-08-20T00:35:21.099Z,4.90
2022-08-20T00:37:48.296Z,4.93
2022-08-20T00:40:22.846Z,5.10
2022-08-20T00:42:57.476Z,4.50
2022-08-20T00:45:26.936Z,5.13
2022-08-20T00:47:57.160Z,5.23
2022-08-20T00:50:27.990Z,5.60
2022-08-20T00:52:55.786Z,5.70
2022-08-20T00:55:26.463Z,5.43
2022-08-20T00:58:01.057Z,5.10
2022-08-20T01:00:33.755Z,5.30
2022-08-20T01:03:01.367Z,5.80
2022-08-20T01:05:30.056Z,5.80
2022-08-20T01:07:57.996Z,5.47
2022-08-20T01:10:27.831Z,5.80
2022-08-20T01:12:59.185Z,5.70
2022-08-20T01:15:31.045Z,6.30
2022-08-20T01:17:59.846Z,6.20
2022-08-20T01:20:28.966Z,5.73
2022-08-20T01:23:26.503Z,6.10
2022-08-20T01:25:56.501Z,5.93
2022-08-20T01:28:27.351Z,5.63
2022-08-20T01:30:54.714Z,6.47
2022-08-20T01:33:22.567Z,6.43
2022-08-20T01:35:50.378Z,6.17
2022-08-20T01:38:18.089Z,6.80
2022-08-20T01:40:55.788Z,6.87
2022-08-20T01:43:24.110Z,7.17
2022-08-20T01:45:52.849Z,7.10
2022-08-20T01:48:20.131Z,6.13
2022-08-20T01:51:07.617Z,6.70
2022-08-20T01:53:37.400Z,6.63
2022-08-20T01:56:06.674Z,7.40
2022-08-20T01:58:35.296Z,7.07
2022-08-20T02:01:02.427Z,6.97
2022-08-20T02:03:33.592Z,7.17
2022-08-20T02:06:03.781Z,7.13
2022-08-20T02:08:33.353Z,7.30
2022-08-20T02:11:00.475Z,7.77
2022-08-20T02:13:27.629Z,7.67
2022-08-20T02:15:55.174Z,7.90
2022-08-20T02:18:22.751Z,7.93
2022-08-20T02:20:51.062Z,7.60
2022-08-20T02:23:18.710Z,7.70
2022-08-20T02:25:47.512Z,7.43
2022-08-20T02:28:17.166Z,7.80
2022-08-20T02:30:46.357Z,7.57
2022-08-20T02:33:15.104Z,7.67
2022-08-20T02:35:44.093Z,7.93
2022-08-20T02:38:12.221Z,7.90
2022-08-20T02:40:39.356Z,7.90
2022-08-20T02:43:06.855Z,7.90
2022-08-20T02:45:43.527Z,8.50
2022-08-20T02:48:12.089Z,8.10
2022-08-20T02:50:43.849Z,8.27
2022-08-20T02:53:11.719Z,8.43
2022-08-20T02:55:38.980Z,8.30
2022-08-20T02:58:06.136Z,8.10
2022-08-20T03:00:38.333Z,8.33
2022-08-20T03:03:06.805Z,8.80
2022-08-20T03:05:34.049Z,8.30
2022-08-20T03:08:01.234Z,8.50
2022-08-20T03:10:30.172Z,8.03
2022-08-20T03:12:57.329Z,8.07
2022-08-20T03:15:24.488Z,7.40
2022-08-20T03:17:51.747Z,7.27
2022-08-20T03:20:22.403Z,7.70
2022-08-20T03:22:51.134Z,7.50
2022-08-20T03:25:18.295Z,7.30
2022-08-20T03:27:45.519Z,7.60
2022-08-20T03:30:14.545Z,7.03
2022-08-20T03:32:42.217Z,7.77
2022-08-20T03:35:10.852Z,7.73
2022-08-20T03:37:38.106Z,6.90
2022-08-20T03:40:18.451Z,7.07
2022-08-20T03:42:45.625Z,6.90
2022-08-20T03:45:17.116Z,7.27
2022-08-20T03:47:47.195Z,7.57
2022-08-20T03:50:14.720Z,7.57
2022-08-20T03:52:49.950Z,7.63
2022-08-20T03:55:17.214Z,7.57
2022-08-20T03:57:45.706Z,8.30
2022-08-20T04:00:13.721Z,7.57
2022-08-20T04:02:40.904Z,7.10
2022-08-20T04:05:08.396Z,7.40
2022-08-20T04:07:36.487Z,7.37
2022-08-20T04:10:05.539Z,6.67
2022-08-20T04:12:32.743Z,6.97
2022-08-20T04:15:02.350Z,7.57
2022-08-20T04:17:33.463Z,7.70
2022-08-20T04:20:03.067Z,7.20
2022-08-20T04:22:30.299Z,7.07
2022-08-20T04:24:57.445Z,6.80
2022-08-20T04:27:24.610Z,7.20
2022-08-20T04:29:51.726Z,7.10
2022-08-20T04:32:18.926Z,7.20
2022-08-20T04:34:47.285Z,7.23
2022-08-20T04:37:17.304Z,6.97
2022-08-20T04:39:44.683Z,6.60
2022-08-20T04:42:11.955Z,6.73
2022-08-20T04:44:39.804Z,7.13
2022-08-20T04:47:07.792Z,7.17
2022-08-20T04:49:34.929Z,6.80
2022-08-20T04:52:03.212Z,6.07
2022-08-20T04:54:31.385Z,7.03
2022-08-20T04:57:01.442Z,6.73
2022-08-20T04:59:28.890Z,7.20
2022-08-20T05:01:56.014Z,6.60
2022-08-20T05:04:24.150Z,7.03
2022-08-20T05:06:51.276Z,6.90
2022-08-20T05:09:18.436Z,6.73
2022-08-20T05:11:45.558Z,6.63
2022-08-20T05:14:13.902Z,6.70
2022-08-20T05:16:41.290Z,6.60
2022-08-20T05:19:09.592Z,6.40
2022-08-20T05:21:37.317Z,6.20
2022-08-20T05:24:04.791Z,6.07
2022-08-20T05:26:33.317Z,6.73
2022-08-20T05:29:00.496Z,5.77
2022-08-20T05:31:32.092Z,6.40
2022-08-20T05:34:01.368Z,5.93
2022-08-20T05:36:28.549Z,6.60
2022-08-20T05:38:55.756Z,5.93
2022-08-20T05:41:27.502Z,6.20
2022-08-20T05:43:56.765Z,6.40
2022-08-20T05:46:23.910Z,6.13
2022-08-20T05:48:51.051Z,6.28
2022-08-20T05:51:18.213Z,5.68
2022-08-20T05:53:45.397Z,6.28
2022-08-20T05:56:12.559Z,6.32
2022-08-20T05:58:39.705Z,6.53
2022-08-20T06:01:06.957Z,6.18
2022-08-20T06:03:52.903Z,6.25
2022-08-20T06:06:44.982Z,5.60
2022-08-20T06:09:08.169Z,6.13
2022-08-20T06:11:37.446Z,5.80
2022-08-20T06:14:05.744Z,5.60
2022-08-20T06:16:33.022Z,6.13
2022-08-20T06:19:02.705Z,5.85
2022-08-20T06:21:30.289Z,5.60
2022-08-20T06:24:00.957Z,5.45
2022-08-20T06:26:29.877Z,5.28
2022-08-20T06:28:57.640Z,5.78
2022-08-20T06:31:25.316Z,6.00
2022-08-20T06:33:52.461Z,5.82
2022-08-20T06:36:19.907Z,5.53
2022-08-20T06:38:47.261Z,5.70
2022-08-20T06:41:14.721Z,6.22
2022-08-20T06:43:41.865Z,5.72
2022-08-20T06:46:09.038Z,5.68
2022-08-20T06:48:36.696Z,5.85
2022-08-20T06:51:04.255Z,5.10
2022-08-20T06:53:31.374Z,5.90
2022-08-20T06:55:59.313Z,5.80
2022-08-20T06:58:36.676Z,6.07
2022-08-20T07:01:09.910Z,5.95
2022-08-20T07:03:38.400Z,6.10
2022-08-20T07:06:06.068Z,5.60
2022-08-20T07:08:33.323Z,5.60
2022-08-20T07:11:00.820Z,6.05
2022-08-20T07:13:28.752Z,5.65
2022-08-20T07:15:56.351Z,5.70
2022-08-20T07:18:27.912Z,5.65
2022-08-20T07:20:57.000Z,5.72
2022-08-20T07:23:24.710Z,5.82
2022-08-20T07:25:52.015Z,5.00
2022-08-20T07:28:23.682Z,4.75
2022-08-20T07:31:13.231Z,6.15
2022-08-20T07:33:41.289Z,5.50
2022-08-20T07:36:09.042Z,5.53
2022-08-20T07:38:36.756Z,5.60
2022-08-20T07:41:03.973Z,5.53
2022-08-20T07:43:32.828Z,5.43
2022-08-20T07:46:02.163Z,5.53
2022-08-20T07:48:31.974Z,5.07
2022-08-20T07:51:01.534Z,4.93
2022-08-20T07:53:32.377Z,6.07
2022-08-20T07:56:03.242Z,6.10
2022-08-20T07:58:33.659Z,5.63
2022-08-20T08:01:01.043Z,5.82
2022-08-20T08:03:39.512Z,5.10
2022-08-20T08:06:18.248Z,5.35
2022-08-20T08:08:56.917Z,5.45
2022-08-20T08:11:24.103Z,7.15
2022-08-20T08:13:51.978Z,6.57
2022-08-20T08:16:20.105Z,7.88
2022-08-20T08:18:49.807Z,6.30
2022-08-20T08:21:18.345Z,6.40
2022-08-20T08:23:45.720Z,7.22
2022-08-20T08:26:16.218Z,7.20
2022-08-20T08:28:46.099Z,7.15
2022-08-20T08:31:13.298Z,6.95
2022-08-20T08:33:40.875Z,6.55
2022-08-20T08:36:09.791Z,7.03
2022-08-20T08:38:39.851Z,7.32
2022-08-20T08:41:13.663Z,6.85
2022-08-20T08:43:41.088Z,7.25
2022-08-20T08:46:11.272Z,7.65
2022-08-20T08:48:43.257Z,7.43
2022-08-20T08:51:12.611Z,9.82
2022-08-20T08:53:46.462Z,9.82
2022-08-20T08:56:14.867Z,8.88
2022-08-20T08:58:44.492Z,7.90
2022-08-20T09:01:13.882Z,8.15
2022-08-20T09:04:02.966Z,6.55
2022-08-20T09:06:30.114Z,7.00
2022-08-20T09:09:01.013Z,6.50
2022-08-20T09:11:28.661Z,6.95
2022-08-20T09:13:56.136Z,6.88
2022-08-20T09:16:24.136Z,6.88
2022-08-20T09:18:53.136Z,6.85
2022-08-20T09:21:20.380Z,7.72
2022-08-20T09:23:47.516Z,6.95
2022-08-20T09:26:14.741Z,6.68
2022-08-20T09:28:41.876Z,6.22
2022-08-20T09:31:08.979Z,6.18
2022-08-20T09:33:36.133Z,6.80
2022-08-20T09:36:03.366Z,6.10
2022-08-20T09:38:50.484Z,6.60
2022-08-20T09:41:17.733Z,6.63
2022-08-20T09:43:45.082Z,6.15
2022-08-20T09:46:12.408Z,7.28
2022-08-20T09:48:39.587Z,7.18
2022-08-20T09:51:06.870Z,5.95
2022-08-20T09:53:34.250Z,6.97
2022-08-20T09:56:01.495Z,5.93
2022-08-20T09:58:39.329Z,5.80
2022-08-20T10:01:14.284Z,6.05
2022-08-20T10:03:47.902Z,5.90
2022-08-20T10:06:16.847Z,6.13
2022-08-20T10:08:44.423Z,5.95
2022-08-20T10:11:11.650Z,5.47
2022-08-20T10:13:38.799Z,5.57
2022-08-20T10:16:06.135Z,5.20
2022-08-20T10:18:33.291Z,4.90
2022-08-20T10:21:00.500Z,5.60
2022-08-20T10:23:27.707Z,4.88
2022-08-20T10:25:54.841Z,4.57
2022-08-20T10:28:22.011Z,4.68
2022-08-20T10:30:49.247Z,4.75
2022-08-20T10:33:16.405Z,4.60
2022-08-20T10:35:43.560Z,4.15
2022-08-20T10:38:10.717Z,4.10
2022-08-20T10:40:37.929Z,3.60
2022-08-20T10:43:05.128Z,4.40
2022-08-20T10:45:32.288Z,3.80
2022-08-20T10:48:00.515Z,4.15
2022-08-20T10:50:30.577Z,4.00
2022-08-20T10:52:58.231Z,3.65
2022-08-20T10:55:25.451Z,3.97
2022-08-20T10:57:52.653Z,3.50
2022-08-20T11:00:19.905Z,3.80
2022-08-20T11:02:47.091Z,3.53
2022-08-20T11:05:14.266Z,3.42
2022-08-20T11:07:55.610Z,3.70
2022-08-20T11:10:24.466Z,3.45
2022-08-20T11:12:51.607Z,3.20
2022-08-20T11:15:18.851Z,4.60
2022-08-20T11:17:46.427Z,5.90
2022-08-20T11:20:15.293Z,3.30
2022-08-20T11:22:42.442Z,2.90
2022-08-20T11:25:09.853Z,2.65
2022-08-20T11:27:39.080Z,3.72
2022-08-20T11:30:07.250Z,2.63
2022-08-20T11:32:34.422Z,3.10
2022-08-20T11:35:13.727Z,2.75
2022-08-20T11:37:46.289Z,3.33
2022-08-20T11:40:13.878Z,2.60
2022-08-20T11:43:04.433Z,2.50
2022-08-20T11:45:28.825Z,2.72
2022-08-20T11:47:56.029Z,2.15
2022-08-20T11:50:27.644Z,2.30
2022-08-20T11:52:54.801Z,2.55
2022-08-20T11:55:22.638Z,2.83
2022-08-20T11:58:00.021Z,3.25
2022-08-20T12:00:32.008Z,3.00
2022-08-20T12:03:02.030Z,3.67
2022-08-20T12:05:30.183Z,3.50
2022-08-20T12:07:57.815Z,3.78
2022-08-20T12:10:26.776Z,3.20
2022-08-20T12:12:54.173Z,3.63
2022-08-20T12:15:21.553Z,4.80
2022-08-20T12:17:48.947Z,4.57
2022-08-20T12:20:16.318Z,5.03
2022-08-20T12:22:44.587Z,4.80
2022-08-20T12:25:12.139Z,4.70
2022-08-20T12:27:40.016Z,5.60
2022-08-20T12:30:13.101Z,5.65
2022-08-20T12:32:40.273Z,6.20
2022-08-20T12:35:07.990Z,5.65
2022-08-20T12:37:35.206Z,5.28
2022-08-20T12:40:04.568Z,5.15
2022-08-20T12:42:31.827Z,5.30
2022-08-20T12:44:59.305Z,5.55
2022-08-20T12:47:33.713Z,5.55
2022-08-20T12:50:02.583Z,5.13
2022-08-20T12:52:32.011Z,5.55
2022-08-20T12:54:59.364Z,4.80
2022-08-20T12:57:28.747Z,5.43
2022-08-20T12:59:57.074Z,5.05
2022-08-20T13:02:26.435Z,5.03
2022-08-20T13:04:53.634Z,4.35
2022-08-20T13:07:22.820Z,4.80
2022-08-20T13:09:49.953Z,3.50
2022-08-20T13:12:17.226Z,3.10
2022-08-20T13:14:44.397Z,3.10
2022-08-20T13:17:11.578Z,2.90
2022-08-20T13:19:39.728Z,2.70
2022-08-20T13:22:06.929Z,2.50
2022-08-20T13:24:34.374Z,2.00
2022-08-20T13:27:20.099Z,2.08
2022-08-20T13:29:48.256Z,1.48
2022-08-20T13:32:15.439Z,1.42
2022-08-20T13:34:42.581Z,1.50
2022-08-20T13:37:17.850Z,1.40
2022-08-20T13:39:47.246Z,1.40
2022-08-20T13:42:15.168Z,1.80
2022-08-20T13:44:42.433Z,1.52
2022-08-20T13:47:17.181Z,1.52
2022-08-20T13:49:44.637Z,2.10
2022-08-20T13:52:11.877Z,1.80
2022-08-20T13:54:44.026Z,1.98
2022-08-20T13:57:16.917Z,1.95
2022-08-20T13:59:45.359Z,2.00
2022-08-20T14:02:13.252Z,2.25
2022-08-20T14:04:40.910Z,1.85
2022-08-20T14:07:10.879Z,1.90
2022-08-20T14:09:39.585Z,1.90
2022-08-20T14:12:07.529Z,2.13
2022-08-20T14:14:34.767Z,2.20
2022-08-20T14:17:13.184Z,1.90
2022-08-20T14:19:42.339Z,2.13
2022-08-20T14:22:09.563Z,2.47
2022-08-20T14:24:36.805Z,2.40
2022-08-20T14:27:05.152Z,2.50
2022-08-20T14:29:37.029Z,2.45
2022-08-20T14:32:04.745Z,2.30
2022-08-20T14:34:32.330Z,2.60
2022-08-20T14:37:19.734Z,2.60
2022-08-20T14:39:48.242Z,2.40
2022-08-20T14:42:15.871Z,2.40
2022-08-20T14:44:43.357Z,2.28
2022-08-20T14:47:20.924Z,2.45
2022-08-20T14:49:49.344Z,2.42
2022-08-20T14:52:17.298Z,2.58
2022-08-20T14:54:44.980Z,2.35
2022-08-20T14:57:14.770Z,2.60
2022-08-20T14:59:41.966Z,2.80
2022-08-20T15:02:10.226Z,2.58
2022-08-20T15:04:37.883Z,2.50
2022-08-20T15:07:08.130Z,2.85
2022-08-20T15:09:38.294Z,2.33
2022-08-20T15:12:05.699Z,3.10
2022-08-20T15:14:32.822Z,2.42
2022-08-20T15:17:00.796Z,2.22
2022-08-20T15:19:27.980Z,1.80
2022-08-20T15:21:55.100Z,2.17
2022-08-20T15:24:22.507Z,2.28
2022-08-20T15:26:49.773Z,2.10
2022-08-20T15:29:22.808Z,2.45
2022-08-20T15:31:50.642Z,2.20
2022-08-20T15:34:18.411Z,2.13
2022-08-20T15:36:46.214Z,2.22
2022-08-20T15:39:13.348Z,1.98
2022-08-20T15:41:40.521Z,2.25
2022-08-20T15:44:07.675Z,1.98
2022-08-20T15:46:37.471Z,2.05
2022-08-20T15:49:08.929Z,2.03
2022-08-20T15:51:41.866Z,2.35
2022-08-20T15:54:13.291Z,2.30
2022-08-20T15:56:40.383Z,2.30
2022-08-20T15:59:13.040Z,2.15
2022-08-20T16:01:52.571Z,2.70
2022-08-20T16:04:20.062Z,2.95
2022-08-20T16:06:48.189Z,3.53
2022-08-20T16:09:35.573Z,3.05
2022-08-20T16:12:15.758Z,2.90
2022-08-20T16:14:44.352Z,2.83
2022-08-20T16:17:16.378Z,3.65
2022-08-20T16:20:02.247Z,3.00
2022-08-20T16:22:30.922Z,2.80
2022-08-20T16:24:58.291Z,3.10
2022-08-20T16:27:25.397Z,2.70
2022-08-20T16:29:52.509Z,2.60
2022-08-20T16:32:26.496Z,2.72
2022-08-20T16:34:59.114Z,2.78
2022-08-20T16:37:58.988Z,2.47
2022-08-20T16:40:28.949Z,2.42
2022-08-20T16:42:58.478Z,2.17
2022-08-20T16:45:28.240Z,2.10
2022-08-20T16:47:58.221Z,1.95
2022-08-20T16:50:27.958Z,2.40
2022-08-20T16:52:55.330Z,2.10
2022-08-20T16:55:23.588Z,2.00
2022-08-20T16:57:52.804Z,2.13
2022-08-20T17:00:25.519Z,1.73
2022-08-20T17:03:00.120Z,1.85
2022-08-20T17:05:47.257Z,2.00
2022-08-20T17:08:34.854Z,1.98
2022-08-20T17:11:13.082Z,2.05
2022-08-20T17:13:41.980Z,1.73
2022-08-20T17:16:18.176Z,1.95
2022-08-20T17:18:46.855Z,2.20
2022-08-20T17:21:15.844Z,2.00
2022-08-20T17:23:56.066Z,1.85
2022-08-20T17:26:35.061Z,2.03
2022-08-20T17:29:25.279Z,2.10
2022-08-20T17:31:53.880Z,1.92
2022-08-20T17:34:23.010Z,2.00
2022-08-20T17:36:55.446Z,2.00
2022-08-20T17:39:23.818Z,1.90
2022-08-20T17:41:56.092Z,1.85
2022-08-20T17:44:33.408Z,1.75
2022-08-20T17:47:02.576Z,1.90
2022-08-20T17:50:01.930Z,2.17
2022-08-20T17:52:35.074Z,1.83
2022-08-20T17:55:03.467Z,2.10
2022-08-20T17:57:33.743Z,2.15
2022-08-20T18:00:07.443Z,2.30
2022-08-20T18:02:34.942Z,2.30
2022-08-20T18:05:02.617Z,2.15
2022-08-20T18:07:48.328Z,2.50
2022-08-20T18:10:19.239Z,2.47
2022-08-20T18:12:49.392Z,2.08
2022-08-20T18:15:22.514Z,2.25
2022-08-20T18:17:54.216Z,2.30
2022-08-20T18:20:40.083Z,2.40
2022-08-20T18:23:41.252Z,2.67
2022-08-20T18:26:17.616Z,2.58
2022-08-20T18:28:47.202Z,2.30
2022-08-20T18:31:43.432Z,2.00
2022-08-20T18:34:12.158Z,2.65
2022-08-20T18:36:40.771Z,2.90
2022-08-20T18:39:10.348Z,2.40
2022-08-20T18:41:39.839Z,2.40
2022-08-20T18:44:09.101Z,2.40
2022-08-20T18:46:37.325Z,2.60
2022-08-20T18:49:06.718Z,2.35
2022-08-20T18:51:40.829Z,2.38
2022-08-20T18:54:08.112Z,2.28
2022-08-20T18:56:37.578Z,2.53
2022-08-20T18:59:10.921Z,2.55
2022-08-20T19:01:38.638Z,2.88
2022-08-20T19:04:14.919Z,2.67
2022-08-20T19:06:45.177Z,2.70
2022-08-20T19:09:12.277Z,2.83
2022-08-20T19:11:39.394Z,2.60
2022-08-20T19:14:17.661Z,2.60
2022-08-20T19:16:47.068Z,2.47
2022-08-20T19:19:18.856Z,2.80
2022-08-20T19:21:46.109Z,2.80
2022-08-20T19:24:15.901Z,2.87
2022-08-20T19:26:44.981Z,3.20
2022-08-20T19:29:14.573Z,3.20
2022-08-20T19:31:41.761Z,3.00
2022-08-20T19:34:19.846Z,3.20
2022-08-20T19:37:02.171Z,3.00
2022-08-20T19:39:47.088Z,2.80
2022-08-20T19:42:14.329Z,3.10
2022-08-20T19:44:45.436Z,3.00
2022-08-20T19:47:20.173Z,3.07
2022-08-20T19:49:54.736Z,3.23
2022-08-20T19:52:26.312Z,2.63
2022-08-20T19:54:56.319Z,2.70
2022-08-20T19:57:26.973Z,2.90
2022-08-20T19:59:56.971Z,3.23
2022-08-20T20:02:25.265Z,3.13
2022-08-20T20:04:55.360Z,3.33
2022-08-20T20:07:27.991Z,3.43
2022-08-20T20:09:56.810Z,3.27
2022-08-20T20:12:24.671Z,3.20
2022-08-20T20:14:52.991Z,3.47
2022-08-20T20:17:24.909Z,2.93
2022-08-20T20:19:56.787Z,3.50
2022-08-20T20:22:31.329Z,3.60
2022-08-20T20:25:04.435Z,3.63
2022-08-20T20:27:32.206Z,3.60
2022-08-20T20:30:05.172Z,3.43
2022-08-20T20:32:33.950Z,3.67
2022-08-20T20:35:02.207Z,3.57
2022-08-20T20:37:49.718Z,3.80
2022-08-20T20:40:26.464Z,3.80
2022-08-20T20:43:08.395Z,3.80
2022-08-20T20:45:41.071Z,3.75
2022-08-20T20:48:18.062Z,4.17
2022-08-20T20:50:46.772Z,3.77
2022-08-20T20:53:14.538Z,4.00
2022-08-20T20:55:42.710Z,3.87
2022-08-20T20:58:09.903Z,3.90
2022-08-20T21:00:37.025Z,3.60
2022-08-20T21:03:04.723Z,3.90
2022-08-20T21:05:32.829Z,3.70
2022-08-20T21:08:04.638Z,3.83
2022-08-20T21:10:35.388Z,3.77
2022-08-20T21:13:05.355Z,3.83
2022-08-20T21:15:33.634Z,4.33
2022-08-20T21:18:01.619Z,4.40
2022-08-20T21:20:29.252Z,4.23
2022-08-20T21:22:59.861Z,3.90
2022-08-20T21:25:27.815Z,4.13
2022-08-20T21:27:55.232Z,4.30
2022-08-20T21:30:23.343Z,4.20
2022-08-20T21:32:50.713Z,4.40
2022-08-20T21:35:18.012Z,3.93
2022-08-20T21:37:45.186Z,4.03
2022-08-20T21:40:12.768Z,4.47
2022-08-20T21:42:40.624Z,3.90
2022-08-20T21:45:08.575Z,4.07
2022-08-20T21:47:35.816Z,4.67
2022-08-20T21:50:03.226Z,4.17
2022-08-20T21:52:30.356Z,4.50
2022-08-20T21:54:57.562Z,4.70
2022-08-20T21:57:27.059Z,4.50
2022-08-20T21:59:54.811Z,4.43
2022-08-20T22:02:22.219Z,4.67
2022-08-20T22:04:53.844Z,4.80
2022-08-20T22:07:21.589Z,4.40
2022-08-20T22:09:48.714Z,4.57
2022-08-20T22:12:21.725Z,3.90
2022-08-20T22:14:49.133Z,4.20
2022-08-20T22:17:16.366Z,4.60
2022-08-20T22:19:43.573Z,5.10
2022-08-20T22:22:11.274Z,5.23
2022-08-20T22:24:38.672Z,5.53
2022-08-20T22:27:06.659Z,5.50
2022-08-20T22:29:34.220Z,5.93
2022-08-20T22:32:01.629Z,5.40
2022-08-20T22:34:29.661Z,6.00
2022-08-20T22:36:58.036Z,5.93
2022-08-20T22:39:25.176Z,5.47
2022-08-20T22:41:53.041Z,5.63
2022-08-20T22:44:20.480Z,5.37
2022-08-20T22:46:51.555Z,5.43
2022-08-20T22:49:22.887Z,5.10
2022-08-20T22:51:50.135Z,4.83
2022-08-20T22:54:19.408Z,5.80
2022-08-20T22:56:46.618Z,5.33
2022-08-20T22:59:14.149Z,4.87
2022-08-20T23:01:44.195Z,5.40
2022-08-20T23:04:18.712Z,5.60
2022-08-20T23:06:45.880Z,5.20
2022-08-20T23:09:13.201Z,4.80
2022-08-20T23:11:40.579Z,5.63
2022-08-20T23:14:07.706Z,5.30
2022-08-20T23:16:35.315Z,5.70
2022-08-20T23:19:02.471Z,5.63
2022-08-20T23:21:29.637Z,5.77
2022-08-20T23:23:56.769Z,5.80
2022-08-20T23:26:24.046Z,5.57
2022-08-20T23:28:51.210Z,5.43
2022-08-20T23:31:18.413Z,6.10
2022-08-20T23:33:45.548Z,5.63
2022-08-20T23:36:12.951Z,5.03
2022-08-20T23:38:40.231Z,5.80
2022-08-20T23:41:07.347Z,5.83
2022-08-20T23:43:34.510Z,5.60
2022-08-20T23:46:03.209Z,5.90
2022-08-20T23:48:30.570Z,5.87
2022-08-20T23:50:57.955Z,6.07
2022-08-20T23:53:25.083Z,5.67
2022-08-20T23:55:52.237Z,6.07
2022-08-20T23:58:19.548Z,6.03
